sensor_id;sensor_type;location;lat;lon;timestamp;pressure;altitude;pressure_sealevel;temperature
64394;BMP280;50712;49.506;10.400;2023-05-10T00:00:02;97326.13;;;20.13
64394;BMP280;50712;49.506;10.400;2023-05-10T00:00:43;97326.13;;;20.13
64394;BMP280;50712;49.506;10.400;2023-05-10T00:01:13;97328.16;;;20.12
64394;BMP280;50712;49.506;10.400;2023-05-10T00:01:43;97323.91;;;20.11
64394;BMP280;50712;49.506;10.400;2023-05-10T00:02:14;97322.41;;;20.10
64394;BMP280;50712;49.506;10.400;2023-05-10T00:02:44;97327.19;;;20.10
64394;BMP280;50712;49.506;10.400;2023-05-10T00:03:14;97322.91;;;20.09
64394;BMP280;50712;49.506;10.400;2023-05-10T00:03:45;97326.44;;;20.09
64394;BMP280;50712;49.506;10.400;2023-05-10T00:04:15;97322.22;;;20.08
64394;BMP280;50712;49.506;10.400;2023-05-10T00:04:46;97329.00;;;20.07
64394;BMP280;50712;49.506;10.400;2023-05-10T00:05:16;97324.72;;;20.06
64394;BMP280;50712;49.506;10.400;2023-05-10T00:05:46;97332.28;;;20.06
64394;BMP280;50712;49.506;10.400;2023-05-10T00:06:17;97326.56;;;20.04
64394;BMP280;50712;49.506;10.400;2023-05-10T00:06:47;97329.31;;;20.04
64394;BMP280;50712;49.506;10.400;2023-05-10T00:07:18;97327.81;;;20.03
64394;BMP280;50712;49.506;10.400;2023-05-10T00:07:48;97334.63;;;20.02
64394;BMP280;50712;49.506;10.400;2023-05-10T00:08:18;97327.06;;;20.02
64394;BMP280;50712;49.506;10.400;2023-05-10T00:08:49;97333.88;;;20.01
64394;BMP280;50712;49.506;10.400;2023-05-10T00:09:19;97328.13;;;19.99
64394;BMP280;50712;49.506;10.400;2023-05-10T00:09:49;97326.13;;;20.00
64394;BMP280;50712;49.506;10.400;2023-05-10T00:10:20;97331.66;;;20.00
64394;BMP280;50712;49.506;10.400;2023-05-10T00:10:50;97330.16;;;19.99
64394;BMP280;50712;49.506;10.400;2023-05-10T00:11:20;97328.66;;;19.98
64394;BMP280;50712;49.506;10.400;2023-05-10T00:11:51;97331.41;;;19.98
64394;BMP280;50712;49.506;10.400;2023-05-10T00:12:21;97333.44;;;19.97
64394;BMP280;50712;49.506;10.400;2023-05-10T00:12:52;97329.91;;;19.97
64394;BMP280;50712;49.506;10.400;2023-05-10T00:13:22;97324.94;;;19.95
64394;BMP280;50712;49.506;10.400;2023-05-10T00:13:52;97333.25;;;19.95
64394;BMP280;50712;49.506;10.400;2023-05-10T00:14:23;97329.72;;;19.95
64394;BMP280;50712;49.506;10.400;2023-05-10T00:14:53;97322.69;;;19.94
64394;BMP280;50712;49.506;10.400;2023-05-10T00:15:23;97331.72;;;19.94
64394;BMP280;50712;49.506;10.400;2023-05-10T00:15:54;97321.19;;;19.93
64394;BMP280;50712;49.506;10.400;2023-05-10T00:16:24;97326.69;;;19.93
64394;BMP280;50712;49.506;10.400;2023-05-10T00:16:55;97323.75;;;19.91
64394;BMP280;50712;49.506;10.400;2023-05-10T00:17:25;97323.75;;;19.91
64394;BMP280;50712;49.506;10.400;2023-05-10T00:17:56;97325.75;;;19.90
64394;BMP280;50712;49.506;10.400;2023-05-10T00:18:26;97326.50;;;19.91
64394;BMP280;50712;49.506;10.400;2023-05-10T00:18:56;97323.75;;;19.91
64394;BMP280;50712;49.506;10.400;2023-05-10T00:19:27;97322.25;;;19.90
64394;BMP280;50712;49.506;10.400;2023-05-10T00:19:57;97323.53;;;19.89
64394;BMP280;50712;49.506;10.400;2023-05-10T00:20:27;97330.53;;;19.90
64394;BMP280;50712;49.506;10.400;2023-05-10T00:20:58;97325.53;;;19.88
64394;BMP280;50712;49.506;10.400;2023-05-10T00:21:28;97327.03;;;19.89
64394;BMP280;50712;49.506;10.400;2023-05-10T00:21:59;97329.06;;;19.89
64394;BMP280;50712;49.506;10.400;2023-05-10T00:22:29;97331.06;;;19.88
64394;BMP280;50712;49.506;10.400;2023-05-10T00:23:00;97324.06;;;19.87
64394;BMP280;50712;49.506;10.400;2023-05-10T00:23:30;97325.53;;;19.88
64394;BMP280;50712;49.506;10.400;2023-05-10T00:24:00;97330.31;;;19.88
64394;BMP280;50712;49.506;10.400;2023-05-10T00:24:31;97324.78;;;19.88
64394;BMP280;50712;49.506;10.400;2023-05-10T00:25:01;97318.53;;;19.87
64394;BMP280;50712;49.506;10.400;2023-05-10T00:25:32;97325.53;;;19.88
64394;BMP280;50712;49.506;10.400;2023-05-10T00:26:02;97324.28;;;19.89
64394;BMP280;50712;49.506;10.400;2023-05-10T00:26:33;97324.78;;;19.88
64394;BMP280;50712;49.506;10.400;2023-05-10T00:27:04;97318.00;;;19.89
64394;BMP280;50712;49.506;10.400;2023-05-10T00:27:34;97322.78;;;19.88
64394;BMP280;50712;49.506;10.400;2023-05-10T00:28:05;97319.25;;;19.88
64394;BMP280;50712;49.506;10.400;2023-05-10T00:28:35;97320.53;;;19.87
64394;BMP280;50712;49.506;10.400;2023-05-10T00:29:06;97323.31;;;19.87
64394;BMP280;50712;49.506;10.400;2023-05-10T00:29:37;97321.81;;;19.86
64394;BMP280;50712;49.506;10.400;2023-05-10T00:30:07;97313.53;;;19.86
64394;BMP280;50712;49.506;10.400;2023-05-10T00:30:38;97321.81;;;19.86
64394;BMP280;50712;49.506;10.400;2023-05-10T00:31:09;97319.81;;;19.86
64394;BMP280;50712;49.506;10.400;2023-05-10T00:31:39;97313.53;;;19.86
64394;BMP280;50712;49.506;10.400;2023-05-10T00:32:10;97315.53;;;19.85
64394;BMP280;50712;49.506;10.400;2023-05-10T00:32:40;97316.31;;;19.86
64394;BMP280;50712;49.506;10.400;2023-05-10T00:33:10;97319.06;;;19.86
64394;BMP280;50712;49.506;10.400;2023-05-10T00:33:41;97309.25;;;19.85
64394;BMP280;50712;49.506;10.400;2023-05-10T00:34:12;97314.28;;;19.86
64394;BMP280;50712;49.506;10.400;2023-05-10T00:34:43;97317.06;;;19.86
64394;BMP280;50712;49.506;10.400;2023-05-10T00:35:13;97314.28;;;19.86
64394;BMP280;50712;49.506;10.400;2023-05-10T00:35:43;97311.53;;;19.86
64394;BMP280;50712;49.506;10.400;2023-05-10T00:36:14;97313.00;;;19.87
64394;BMP280;50712;49.506;10.400;2023-05-10T00:36:45;97315.00;;;19.87
64394;BMP280;50712;49.506;10.400;2023-05-10T00:37:15;97310.22;;;19.87
64394;BMP280;50712;49.506;10.400;2023-05-10T00:37:45;97314.28;;;19.86
64394;BMP280;50712;49.506;10.400;2023-05-10T00:38:16;97313.00;;;19.87
64394;BMP280;50712;49.506;10.400;2023-05-10T00:38:46;97311.72;;;19.88
64394;BMP280;50712;49.506;10.400;2023-05-10T00:39:16;97316.72;;;19.90
64394;BMP280;50712;49.506;10.400;2023-05-10T00:39:48;97313.72;;;19.88
64394;BMP280;50712;49.506;10.400;2023-05-10T00:40:18;97311.72;;;19.88
64394;BMP280;50712;49.506;10.400;2023-05-10T00:40:53;97315.97;;;19.89
64394;BMP280;50712;49.506;10.400;2023-05-10T00:41:30;97314.47;;;19.88
64394;BMP280;50712;49.506;10.400;2023-05-10T00:42:04;97313.72;;;19.88
64394;BMP280;50712;49.506;10.400;2023-05-10T00:42:34;97310.22;;;19.87
64394;BMP280;50712;49.506;10.400;2023-05-10T00:43:05;97313.00;;;19.87
64394;BMP280;50712;49.506;10.400;2023-05-10T00:43:35;97313.00;;;19.87
64394;BMP280;50712;49.506;10.400;2023-05-10T00:44:07;97309.47;;;19.87
64394;BMP280;50712;49.506;10.400;2023-05-10T00:44:38;97314.28;;;19.86
64394;BMP280;50712;49.506;10.400;2023-05-10T00:45:09;97311.53;;;19.86
64394;BMP280;50712;49.506;10.400;2023-05-10T00:45:40;97315.00;;;19.87
64394;BMP280;50712;49.506;10.400;2023-05-10T00:46:11;97314.28;;;19.86
64394;BMP280;50712;49.506;10.400;2023-05-10T00:46:42;97317.56;;;19.85
64394;BMP280;50712;49.506;10.400;2023-05-10T00:47:12;97310.00;;;19.85
64394;BMP280;50712;49.506;10.400;2023-05-10T00:47:42;97315.53;;;19.85
64394;BMP280;50712;49.506;10.400;2023-05-10T00:48:13;97314.78;;;19.85
64394;BMP280;50712;49.506;10.400;2023-05-10T00:48:43;97317.56;;;19.85
64394;BMP280;50712;49.506;10.400;2023-05-10T00:49:15;97313.28;;;19.84
64394;BMP280;50712;49.506;10.400;2023-05-10T00:49:46;97311.84;;;19.83
64394;BMP280;50712;49.506;10.400;2023-05-10T00:50:16;97309.06;;;19.83
64394;BMP280;50712;49.506;10.400;2023-05-10T00:50:47;97322.13;;;19.82
64394;BMP280;50712;49.506;10.400;2023-05-10T00:51:18;97314.34;;;19.81
64394;BMP280;50712;49.506;10.400;2023-05-10T00:51:48;97322.63;;;19.81
64394;BMP280;50712;49.506;10.400;2023-05-10T00:52:19;97320.41;;;19.79
64394;BMP280;50712;49.506;10.400;2023-05-10T00:52:51;97314.88;;;19.79
64394;BMP280;50712;49.506;10.400;2023-05-10T00:53:21;97321.69;;;19.78
64394;BMP280;50712;49.506;10.400;2023-05-10T00:53:52;97314.66;;;19.77
64394;BMP280;50712;49.506;10.400;2023-05-10T00:54:23;97313.94;;;19.77
64394;BMP280;50712;49.506;10.400;2023-05-10T00:54:54;97318.72;;;19.76
64394;BMP280;50712;49.506;10.400;2023-05-10T00:55:26;97320.72;;;19.76
64394;BMP280;50712;49.506;10.400;2023-05-10T00:55:56;97320.72;;;19.76
64394;BMP280;50712;49.506;10.400;2023-05-10T00:56:27;97316.44;;;19.75
64394;BMP280;50712;49.506;10.400;2023-05-10T00:56:59;97316.44;;;19.75
64394;BMP280;50712;49.506;10.400;2023-05-10T00:57:30;97321.97;;;19.75
64394;BMP280;50712;49.506;10.400;2023-05-10T00:58:00;97310.91;;;19.75
64394;BMP280;50712;49.506;10.400;2023-05-10T00:58:31;97319.22;;;19.75
64394;BMP280;50712;49.506;10.400;2023-05-10T00:59:02;97317.75;;;19.74
64394;BMP280;50712;49.506;10.400;2023-05-10T00:59:32;97313.47;;;19.73
64394;BMP280;50712;49.506;10.400;2023-05-10T01:00:03;97321.78;;;19.73
64394;BMP280;50712;49.506;10.400;2023-05-10T01:00:34;97324.53;;;19.73
64394;BMP280;50712;49.506;10.400;2023-05-10T01:01:07;97314.00;;;19.71
64394;BMP280;50712;49.506;10.400;2023-05-10T01:01:38;97318.75;;;19.70
64394;BMP280;50712;49.506;10.400;2023-05-10T01:02:08;97318.03;;;19.70
64394;BMP280;50712;49.506;10.400;2023-05-10T01:02:39;97320.81;;;19.70
64394;BMP280;50712;49.506;10.400;2023-05-10T01:03:10;97316.56;;;19.69
64394;BMP280;50712;49.506;10.400;2023-05-10T01:03:41;97328.38;;;19.70
64394;BMP280;50712;49.506;10.400;2023-05-10T01:04:12;97324.09;;;19.68
64394;BMP280;50712;49.506;10.400;2023-05-10T01:04:43;97324.63;;;19.67
64394;BMP280;50712;49.506;10.400;2023-05-10T01:05:13;97325.34;;;19.67
64394;BMP280;50712;49.506;10.400;2023-05-10T01:05:44;97327.41;;;19.67
64394;BMP280;50712;49.506;10.400;2023-05-10T01:06:14;97329.41;;;19.66
64394;BMP280;50712;49.506;10.400;2023-05-10T01:06:45;97328.66;;;19.66
64394;BMP280;50712;49.506;10.400;2023-05-10T01:07:15;97329.19;;;19.64
64394;BMP280;50712;49.506;10.400;2023-05-10T01:07:46;97328.44;;;19.64
64394;BMP280;50712;49.506;10.400;2023-05-10T01:08:18;97326.19;;;19.62
64394;BMP280;50712;49.506;10.400;2023-05-10T01:08:48;97336.50;;;19.62
64394;BMP280;50712;49.506;10.400;2023-05-10T01:09:22;97331.53;;;19.60
64394;BMP280;50712;49.506;10.400;2023-05-10T01:09:55;97329.25;;;19.59
64394;BMP280;50712;49.506;10.400;2023-05-10T01:10:26;97330.78;;;19.60
64394;BMP280;50712;49.506;10.400;2023-05-10T01:10:57;97327.75;;;19.58
64394;BMP280;50712;49.506;10.400;2023-05-10T01:11:27;97334.59;;;19.57
64394;BMP280;50712;49.506;10.400;2023-05-10T01:11:59;97322.78;;;19.56
64394;BMP280;50712;49.506;10.400;2023-05-10T01:12:34;97333.09;;;19.56
64394;BMP280;50712;49.506;10.400;2023-05-10T01:13:08;97331.56;;;19.55
64394;BMP280;50712;49.506;10.400;2023-05-10T01:13:41;97333.63;;;19.54
64394;BMP280;50712;49.506;10.400;2023-05-10T01:14:13;97334.13;;;19.53
64394;BMP280;50712;49.506;10.400;2023-05-10T01:14:44;97335.41;;;19.52
64394;BMP280;50712;49.506;10.400;2023-05-10T01:15:15;97329.13;;;19.51
64394;BMP280;50712;49.506;10.400;2023-05-10T01:15:48;97328.41;;;19.51
64394;BMP280;50712;49.506;10.400;2023-05-10T01:16:19;97331.16;;;19.51
64394;BMP280;50712;49.506;10.400;2023-05-10T01:16:52;97333.16;;;19.50
64394;BMP280;50712;49.506;10.400;2023-05-10T01:17:23;97326.88;;;19.50
64394;BMP280;50712;49.506;10.400;2023-05-10T01:17:54;97332.41;;;19.50
64394;BMP280;50712;49.506;10.400;2023-05-10T01:18:27;97328.13;;;19.49
64394;BMP280;50712;49.506;10.400;2023-05-10T01:18:59;97332.91;;;19.48
64394;BMP280;50712;49.506;10.400;2023-05-10T01:19:30;97327.94;;;19.47
64394;BMP280;50712;49.506;10.400;2023-05-10T01:20:02;97329.19;;;19.46
64394;BMP280;50712;49.506;10.400;2023-05-10T01:20:35;97327.72;;;19.45
64394;BMP280;50712;49.506;10.400;2023-05-10T01:21:19;97319.97;;;19.43
64394;BMP280;50712;49.506;10.400;2023-05-10T01:22:50;97331.28;;;19.40
64394;BMP280;50712;49.506;10.400;2023-05-10T01:24:50;97332.34;;;19.37
64394;BMP280;50712;49.506;10.400;2023-05-10T01:25:32;97343.19;;;19.35
64394;BMP280;50712;49.506;10.400;2023-05-10T01:26:51;97336.66;;;19.32
64394;BMP280;50712;49.506;10.400;2023-05-10T01:27:45;97335.19;;;19.31
64394;BMP280;50712;49.506;10.400;2023-05-10T01:30:42;97338.53;;;19.24
64394;BMP280;50712;49.506;10.400;2023-05-10T01:33:32;97335.84;;;19.19
64394;BMP280;50712;49.506;10.400;2023-05-10T01:34:09;97344.91;;;19.19
64394;BMP280;50712;49.506;10.400;2023-05-10T01:34:44;97347.66;;;19.19
64394;BMP280;50712;49.506;10.400;2023-05-10T01:35:23;97346.91;;;19.19
64394;BMP280;50712;49.506;10.400;2023-05-10T01:36:13;97341.38;;;19.19
64394;BMP280;50712;49.506;10.400;2023-05-10T01:36:59;97344.66;;;19.17
64394;BMP280;50712;49.506;10.400;2023-05-10T01:37:50;97346.16;;;19.18
64394;BMP280;50712;49.506;10.400;2023-05-10T01:39:42;97350.19;;;19.17
64394;BMP280;50712;49.506;10.400;2023-05-10T01:40:19;97343.91;;;19.17
64394;BMP280;50712;49.506;10.400;2023-05-10T01:41:04;97345.19;;;19.16
64394;BMP280;50712;49.506;10.400;2023-05-10T01:41:49;97344.44;;;19.15
64394;BMP280;50712;49.506;10.400;2023-05-10T01:42:25;97346.44;;;19.15
64394;BMP280;50712;49.506;10.400;2023-05-10T01:43:00;97353.97;;;19.14
64394;BMP280;50712;49.506;10.400;2023-05-10T01:43:36;97342.19;;;19.14
64394;BMP280;50712;49.506;10.400;2023-05-10T01:45:00;97342.72;;;19.12
64394;BMP280;50712;49.506;10.400;2023-05-10T01:45:53;97343.50;;;19.13
64394;BMP280;50712;49.506;10.400;2023-05-10T01:46:35;97344.00;;;19.11
64394;BMP280;50712;49.506;10.400;2023-05-10T01:47:09;97340.47;;;19.11
64394;BMP280;50712;49.506;10.400;2023-05-10T01:47:42;97344.00;;;19.11
64394;BMP280;50712;49.506;10.400;2023-05-10T01:48:14;97337.72;;;19.11
64394;BMP280;50712;49.506;10.400;2023-05-10T01:48:47;97342.72;;;19.12
64394;BMP280;50712;49.506;10.400;2023-05-10T01:49:25;97339.72;;;19.10
64394;BMP280;50712;49.506;10.400;2023-05-10T01:50:00;97340.47;;;19.11
64394;BMP280;50712;49.506;10.400;2023-05-10T01:50:34;97350.03;;;19.10
64394;BMP280;50712;49.506;10.400;2023-05-10T01:51:06;97345.25;;;19.10
64394;BMP280;50712;49.506;10.400;2023-05-10T01:51:40;97334.00;;;19.08
64394;BMP280;50712;49.506;10.400;2023-05-10T01:52:18;97340.28;;;19.09
64394;BMP280;50712;49.506;10.400;2023-05-10T01:52:51;97341.53;;;19.08
64394;BMP280;50712;49.506;10.400;2023-05-10T01:53:24;97341.53;;;19.08
64394;BMP280;50712;49.506;10.400;2023-05-10T01:53:59;97336.75;;;19.08
64394;BMP280;50712;49.506;10.400;2023-05-10T01:54:31;97338.75;;;19.08
64394;BMP280;50712;49.506;10.400;2023-05-10T01:55:06;97347.03;;;19.08
64394;BMP280;50712;49.506;10.400;2023-05-10T01:55:43;97342.03;;;19.06
64394;BMP280;50712;49.506;10.400;2023-05-10T01:56:17;97344.06;;;19.06
64394;BMP280;50712;49.506;10.400;2023-05-10T01:56:59;97344.81;;;19.06
64394;BMP280;50712;49.506;10.400;2023-05-10T01:57:34;97348.81;;;19.05
64394;BMP280;50712;49.506;10.400;2023-05-10T01:58:07;97342.53;;;19.05
64394;BMP280;50712;49.506;10.400;2023-05-10T01:58:43;97342.53;;;19.05
64394;BMP280;50712;49.506;10.400;2023-05-10T01:59:16;97336.28;;;19.04
64394;BMP280;50712;49.506;10.400;2023-05-10T01:59:50;97343.81;;;19.04
64394;BMP280;50712;49.506;10.400;2023-05-10T02:00:21;97342.53;;;19.05
64394;BMP280;50712;49.506;10.400;2023-05-10T02:00:55;97341.06;;;19.04
64394;BMP280;50712;49.506;10.400;2023-05-10T02:01:28;97343.09;;;19.03
64394;BMP280;50712;49.506;10.400;2023-05-10T02:01:59;97346.59;;;19.04
64394;BMP280;50712;49.506;10.400;2023-05-10T02:02:36;97348.63;;;19.03
64394;BMP280;50712;49.506;10.400;2023-05-10T02:03:08;97339.59;;;19.03
64394;BMP280;50712;49.506;10.400;2023-05-10T02:03:41;97345.09;;;19.03
64394;BMP280;50712;49.506;10.400;2023-05-10T02:04:14;97345.09;;;19.03
64394;BMP280;50712;49.506;10.400;2023-05-10T02:04:47;97346.38;;;19.02
64394;BMP280;50712;49.506;10.400;2023-05-10T02:05:20;97343.59;;;19.02
64394;BMP280;50712;49.506;10.400;2023-05-10T02:05:52;97345.59;;;19.01
64394;BMP280;50712;49.506;10.400;2023-05-10T02:06:25;97349.13;;;19.02
64394;BMP280;50712;49.506;10.400;2023-05-10T02:06:57;97346.88;;;19.00
64394;BMP280;50712;49.506;10.400;2023-05-10T02:07:28;97348.91;;;19.00
64394;BMP280;50712;49.506;10.400;2023-05-10T02:08:00;97352.41;;;19.00
64394;BMP280;50712;49.506;10.400;2023-05-10T02:08:33;97349.66;;;19.00
64394;BMP280;50712;49.506;10.400;2023-05-10T02:09:07;97341.38;;;19.00
64394;BMP280;50712;49.506;10.400;2023-05-10T02:09:40;97346.16;;;19.00
64394;BMP280;50712;49.506;10.400;2023-05-10T02:10:14;97351.69;;;19.00
64394;BMP280;50712;49.506;10.400;2023-05-10T02:10:45;97346.88;;;19.00
64394;BMP280;50712;49.506;10.400;2023-05-10T02:11:18;97350.94;;;18.99
64394;BMP280;50712;49.506;10.400;2023-05-10T02:11:50;97345.41;;;18.99
64394;BMP280;50712;49.506;10.400;2023-05-10T02:12:22;97346.66;;;18.98
64394;BMP280;50712;49.506;10.400;2023-05-10T02:12:54;97350.69;;;18.97
64394;BMP280;50712;49.506;10.400;2023-05-10T02:13:29;97352.69;;;18.97
64394;BMP280;50712;49.506;10.400;2023-05-10T02:14:05;97347.19;;;18.97
64394;BMP280;50712;49.506;10.400;2023-05-10T02:14:39;97353.22;;;18.95
64394;BMP280;50712;49.506;10.400;2023-05-10T02:15:11;97346.72;;;18.93
64394;BMP280;50712;49.506;10.400;2023-05-10T02:15:48;97347.97;;;18.92
64394;BMP280;50712;49.506;10.400;2023-05-10T02:16:19;97349.28;;;18.91
64394;BMP280;50712;49.506;10.400;2023-05-10T02:16:55;97349.78;;;18.89
64394;BMP280;50712;49.506;10.400;2023-05-10T02:17:26;97348.28;;;18.88
64394;BMP280;50712;49.506;10.400;2023-05-10T02:17:58;97345.31;;;18.86
64394;BMP280;50712;49.506;10.400;2023-05-10T02:18:30;97350.06;;;18.86
64394;BMP280;50712;49.506;10.400;2023-05-10T02:19:03;97351.34;;;18.85
64394;BMP280;50712;49.506;10.400;2023-05-10T02:19:34;97341.56;;;18.84
64394;BMP280;50712;49.506;10.400;2023-05-10T02:20:07;97347.56;;;18.82
64394;BMP280;50712;49.506;10.400;2023-05-10T02:20:40;97343.38;;;18.81
64394;BMP280;50712;49.506;10.400;2023-05-10T02:21:12;97348.88;;;18.81
64394;BMP280;50712;49.506;10.400;2023-05-10T02:21:45;97347.38;;;18.80
64394;BMP280;50712;49.506;10.400;2023-05-10T02:22:16;97354.91;;;18.80
64394;BMP280;50712;49.506;10.400;2023-05-10T02:22:52;97354.16;;;18.79
64394;BMP280;50712;49.506;10.400;2023-05-10T02:23:25;97351.19;;;18.77
64394;BMP280;50712;49.506;10.400;2023-05-10T02:23:57;97354.66;;;18.78
64394;BMP280;50712;49.506;10.400;2023-05-10T02:24:28;97363.72;;;18.78
64394;BMP280;50712;49.506;10.400;2023-05-10T02:24:59;97354.66;;;18.78
64394;BMP280;50712;49.506;10.400;2023-05-10T02:25:32;97351.69;;;18.76
64394;BMP280;50712;49.506;10.400;2023-05-10T02:26:03;97362.00;;;18.75
64394;BMP280;50712;49.506;10.400;2023-05-10T02:26:35;97358.47;;;18.75
64394;BMP280;50712;49.506;10.400;2023-05-10T02:27:08;97357.72;;;18.74
64394;BMP280;50712;49.506;10.400;2023-05-10T02:27:40;97362.50;;;18.74
64394;BMP280;50712;49.506;10.400;2023-05-10T02:28:13;97356.97;;;18.74
64394;BMP280;50712;49.506;10.400;2023-05-10T02:28:44;97358.97;;;18.73
64394;BMP280;50712;49.506;10.400;2023-05-10T02:29:15;97358.97;;;18.73
64394;BMP280;50712;49.506;10.400;2023-05-10T02:29:46;97358.25;;;18.73
64394;BMP280;50712;49.506;10.400;2023-05-10T02:30:19;97362.28;;;18.72
64394;BMP280;50712;49.506;10.400;2023-05-10T02:30:50;97359.53;;;18.72
64394;BMP280;50712;49.506;10.400;2023-05-10T02:31:22;97364.28;;;18.71
64394;BMP280;50712;49.506;10.400;2023-05-10T02:31:53;97358.00;;;18.71
64394;BMP280;50712;49.506;10.400;2023-05-10T02:32:24;97360.03;;;18.70
64394;BMP280;50712;49.506;10.400;2023-05-10T02:32:56;97362.03;;;18.69
64394;BMP280;50712;49.506;10.400;2023-05-10T02:33:28;97358.31;;;18.67
64394;BMP280;50712;49.506;10.400;2023-05-10T02:34:01;97363.81;;;18.67
64394;BMP280;50712;49.506;10.400;2023-05-10T02:34:33;97360.31;;;18.66
64394;BMP280;50712;49.506;10.400;2023-05-10T02:35:05;97363.59;;;18.65
64394;BMP280;50712;49.506;10.400;2023-05-10T02:35:36;97364.84;;;18.64
64394;BMP280;50712;49.506;10.400;2023-05-10T02:36:08;97362.09;;;18.64
64394;BMP280;50712;49.506;10.400;2023-05-10T02:36:40;97358.59;;;18.63
64394;BMP280;50712;49.506;10.400;2023-05-10T02:37:13;97361.13;;;18.61
64394;BMP280;50712;49.506;10.400;2023-05-10T02:37:46;97361.88;;;18.62
64394;BMP280;50712;49.506;10.400;2023-05-10T02:38:18;97362.38;;;18.60
64394;BMP280;50712;49.506;10.400;2023-05-10T02:38:52;97364.38;;;18.60
64394;BMP280;50712;49.506;10.400;2023-05-10T02:39:23;97363.63;;;18.59
64394;BMP280;50712;49.506;10.400;2023-05-10T02:39:56;97369.69;;;18.58
64394;BMP280;50712;49.506;10.400;2023-05-10T02:40:28;97364.66;;;18.56
64394;BMP280;50712;49.506;10.400;2023-05-10T02:41:00;97366.69;;;18.56
64394;BMP280;50712;49.506;10.400;2023-05-10T02:41:31;97366.69;;;18.56
64394;BMP280;50712;49.506;10.400;2023-05-10T02:42:02;97372.22;;;18.56
64394;BMP280;50712;49.506;10.400;2023-05-10T02:42:35;97371.97;;;18.54
64394;BMP280;50712;49.506;10.400;2023-05-10T02:43:09;97371.22;;;18.53
64394;BMP280;50712;49.506;10.400;2023-05-10T02:43:43;97368.47;;;18.53
64394;BMP280;50712;49.506;10.400;2023-05-10T02:44:17;97372.50;;;18.52
64394;BMP280;50712;49.506;10.400;2023-05-10T02:44:51;97366.22;;;18.52
64394;BMP280;50712;49.506;10.400;2023-05-10T02:45:26;97364.72;;;18.51
64394;BMP280;50712;49.506;10.400;2023-05-10T02:46:00;97369.47;;;18.50
64394;BMP280;50712;49.506;10.400;2023-05-10T02:46:30;97373.56;;;18.49
64394;BMP280;50712;49.506;10.400;2023-05-10T02:47:01;97372.78;;;18.49
64394;BMP280;50712;49.506;10.400;2023-05-10T02:47:33;97367.28;;;18.49
64394;BMP280;50712;49.506;10.400;2023-05-10T02:48:04;97367.28;;;18.49
64394;BMP280;50712;49.506;10.400;2023-05-10T02:48:34;97367.28;;;18.49
64394;BMP280;50712;49.506;10.400;2023-05-10T02:49:05;97368.75;;;18.50
64394;BMP280;50712;49.506;10.400;2023-05-10T02:49:36;97363.75;;;18.48
64394;BMP280;50712;49.506;10.400;2023-05-10T02:50:07;97374.03;;;18.48
64394;BMP280;50712;49.506;10.400;2023-05-10T02:50:37;97367.78;;;18.47
64394;BMP280;50712;49.506;10.400;2023-05-10T02:51:13;97370.53;;;18.47
64394;BMP280;50712;49.506;10.400;2023-05-10T02:51:49;97361.50;;;18.47
64394;BMP280;50712;49.506;10.400;2023-05-10T02:52:25;97364.25;;;18.47
64394;BMP280;50712;49.506;10.400;2023-05-10T02:53:03;97358.75;;;18.47
64394;BMP280;50712;49.506;10.400;2023-05-10T02:53:40;97364.25;;;18.47
64394;BMP280;50712;49.506;10.400;2023-05-10T02:54:20;97368.81;;;18.44
64394;BMP280;50712;49.506;10.400;2023-05-10T02:55:00;97365.53;;;18.46
64394;BMP280;50712;49.506;10.400;2023-05-10T02:55:35;97360.53;;;18.44
64394;BMP280;50712;49.506;10.400;2023-05-10T02:56:12;97371.56;;;18.44
64394;BMP280;50712;49.506;10.400;2023-05-10T02:56:50;97361.06;;;18.43
64394;BMP280;50712;49.506;10.400;2023-05-10T02:57:25;97372.81;;;18.43
64394;BMP280;50712;49.506;10.400;2023-05-10T02:57:59;97367.81;;;18.42
64394;BMP280;50712;49.506;10.400;2023-05-10T02:58:31;97362.84;;;18.40
64394;BMP280;50712;49.506;10.400;2023-05-10T02:59:01;97371.81;;;18.41
64394;BMP280;50712;49.506;10.400;2023-05-10T02:59:32;97371.09;;;18.40
64394;BMP280;50712;49.506;10.400;2023-05-10T03:00:03;97365.59;;;18.40
64394;BMP280;50712;49.506;10.400;2023-05-10T03:00:34;97370.38;;;18.40
64394;BMP280;50712;49.506;10.400;2023-05-10T03:01:06;97372.38;;;18.39
64394;BMP280;50712;49.506;10.400;2023-05-10T03:01:37;97376.38;;;18.38
64394;BMP280;50712;49.506;10.400;2023-05-10T03:02:08;97368.13;;;18.38
64394;BMP280;50712;49.506;10.400;2023-05-10T03:02:40;97371.38;;;18.37
64394;BMP280;50712;49.506;10.400;2023-05-10T03:03:12;97367.16;;;18.36
64394;BMP280;50712;49.506;10.400;2023-05-10T03:03:42;97374.66;;;18.35
64394;BMP280;50712;49.506;10.400;2023-05-10T03:04:13;97378.69;;;18.34
64394;BMP280;50712;49.506;10.400;2023-05-10T03:04:43;97369.66;;;18.34
64394;BMP280;50712;49.506;10.400;2023-05-10T03:05:14;97370.91;;;18.33
64394;BMP280;50712;49.506;10.400;2023-05-10T03:05:44;97373.44;;;18.31
64394;BMP280;50712;49.506;10.400;2023-05-10T03:06:15;97371.69;;;18.28
64394;BMP280;50712;49.506;10.400;2023-05-10T03:06:46;97376.47;;;18.27
64394;BMP280;50712;49.506;10.400;2023-05-10T03:07:17;97375.50;;;18.25
64394;BMP280;50712;49.506;10.400;2023-05-10T03:07:51;97371.25;;;18.24
64394;BMP280;50712;49.506;10.400;2023-05-10T03:08:22;97375.06;;;18.21
64394;BMP280;50712;49.506;10.400;2023-05-10T03:08:54;97370.78;;;18.20
64394;BMP280;50712;49.506;10.400;2023-05-10T03:09:25;97372.03;;;18.19
64394;BMP280;50712;49.506;10.400;2023-05-10T03:09:55;97376.78;;;18.18
64394;BMP280;50712;49.506;10.400;2023-05-10T03:10:27;97366.31;;;18.17
64394;BMP280;50712;49.506;10.400;2023-05-10T03:12:21;97374.31;;;18.15
64394;BMP280;50712;49.506;10.400;2023-05-10T03:14:57;97373.34;;;18.12
64394;BMP280;50712;49.506;10.400;2023-05-10T03:16:15;97377.38;;;18.11
64394;BMP280;50712;49.506;10.400;2023-05-10T03:17:03;97376.63;;;18.11
64394;BMP280;50712;49.506;10.400;2023-05-10T03:17:46;97377.38;;;18.11
64394;BMP280;50712;49.506;10.400;2023-05-10T03:18:22;97384.91;;;18.11
64394;BMP280;50712;49.506;10.400;2023-05-10T03:19:06;97386.16;;;18.10